<?xml version="1.0" encoding="UTF-8" standalone="no" ?>
<gpx xmlns="http://www.topografix.com/GPX/1/1" xmlns:xsi="http://www.w3.org/2001/XMLSchema-instance" xsi:schemaLocation="http://www.topografix.com/GPX/1/1 http://www.topografix.com/GPX/1/1/gpx.xsd" version="1.1" creator="VisuGPX - https://www.visugpx.com">
  <metadata>
    <name>boucles beaumont</name>
    <desc><![CDATA[boucles beaumont du périgord]]></desc>
  </metadata>
  <trk>
    <name><![CDATA[BBmt64]]></name>
    <trkseg>
      <trkpt lat="44.74219" lon="0.79813">
        <ele>173</ele>
        <time>2009-01-20T13:36:53Z</time>
      </trkpt>
      <trkpt lat="44.74243" lon="0.7978">
        <ele>166</ele>
        <time>2009-01-20T13:40:57Z</time>
      </trkpt>
      <trkpt lat="44.74255" lon="0.7976">
        <ele>166</ele>
        <time>2009-01-20T13:41:17Z</time>
      </trkpt>
      <trkpt lat="44.74265" lon="0.79735">
        <ele>165</ele>
        <time>2009-01-20T13:41:22Z</time>
      </trkpt>
      <trkpt lat="44.7427" lon="0.79708">
        <ele>166</ele>
        <time>2009-01-20T13:41:27Z</time>
      </trkpt>
      <trkpt lat="44.74273" lon="0.7968">
        <ele>167</ele>
        <time>2009-01-20T13:41:32Z</time>
      </trkpt>
      <trkpt lat="44.74275" lon="0.7965">
        <ele>167</ele>
        <time>2009-01-20T13:41:37Z</time>
      </trkpt>
      <trkpt lat="44.7428" lon="0.7962">
        <ele>168</ele>
        <time>2009-01-20T13:41:42Z</time>
      </trkpt>
      <trkpt lat="44.7429" lon="0.79598">
        <ele>166</ele>
        <time>2009-01-20T13:41:46Z</time>
      </trkpt>
      <trkpt lat="44.74303" lon="0.79575">
        <ele>165</ele>
        <time>2009-01-20T13:41:50Z</time>
      </trkpt>
      <trkpt lat="44.74315" lon="0.79553">
        <ele>164</ele>
        <time>2009-01-20T13:41:54Z</time>
      </trkpt>
      <trkpt lat="44.74328" lon="0.7953">
        <ele>163</ele>
        <time>2009-01-20T13:41:57Z</time>
      </trkpt>
      <trkpt lat="44.7434" lon="0.7951">
        <ele>163</ele>
        <time>2009-01-20T13:42:00Z</time>
      </trkpt>
      <trkpt lat="44.74353" lon="0.7949">
        <ele>162</ele>
        <time>2009-01-20T13:42:03Z</time>
      </trkpt>
      <trkpt lat="44.7437" lon="0.79473">
        <ele>161</ele>
        <time>2009-01-20T13:42:07Z</time>
      </trkpt>
      <trkpt lat="44.74393" lon="0.79473">
        <ele>160</ele>
        <time>2009-01-20T13:42:11Z</time>
      </trkpt>
      <trkpt lat="44.74415" lon="0.79475">
        <ele>160</ele>
        <time>2009-01-20T13:42:15Z</time>
      </trkpt>
      <trkpt lat="44.74438" lon="0.79475">
        <ele>158</ele>
        <time>2009-01-20T13:42:19Z</time>
      </trkpt>
      <trkpt lat="44.74463" lon="0.79478">
        <ele>156</ele>
        <time>2009-01-20T13:42:23Z</time>
      </trkpt>
      <trkpt lat="44.7448" lon="0.7947">
        <ele>154</ele>
        <time>2009-01-20T13:42:39Z</time>
      </trkpt>
      <trkpt lat="44.7449" lon="0.79448">
        <ele>157</ele>
        <time>2009-01-20T13:42:44Z</time>
      </trkpt>
      <trkpt lat="44.745" lon="0.7942">
        <ele>157</ele>
        <time>2009-01-20T13:42:49Z</time>
      </trkpt>
      <trkpt lat="44.74515" lon="0.79403">
        <ele>155</ele>
        <time>2009-01-20T13:42:53Z</time>
      </trkpt>
      <trkpt lat="44.74533" lon="0.79383">
        <ele>153</ele>
        <time>2009-01-20T13:43:07Z</time>
      </trkpt>
      <trkpt lat="44.7453" lon="0.79353">
        <ele>150</ele>
        <time>2009-01-20T13:43:12Z</time>
      </trkpt>
      <trkpt lat="44.74513" lon="0.79333">
        <ele>146</ele>
        <time>2009-01-20T13:43:15Z</time>
      </trkpt>
      <trkpt lat="44.74495" lon="0.79313">
        <ele>142</ele>
        <time>2009-01-20T13:43:19Z</time>
      </trkpt>
      <trkpt lat="44.74483" lon="0.79293">
        <ele>142</ele>
        <time>2009-01-20T13:43:22Z</time>
      </trkpt>
      <trkpt lat="44.74465" lon="0.79273">
        <ele>138</ele>
        <time>2009-01-20T13:43:26Z</time>
      </trkpt>
      <trkpt lat="44.7445" lon="0.79255">
        <ele>137</ele>
        <time>2009-01-20T13:43:30Z</time>
      </trkpt>
      <trkpt lat="44.74468" lon="0.7924">
        <ele>128</ele>
        <time>2009-01-20T13:43:38Z</time>
      </trkpt>
      <trkpt lat="44.74488" lon="0.7924">
        <ele>124</ele>
        <time>2009-01-20T13:43:42Z</time>
      </trkpt>
      <trkpt lat="44.74505" lon="0.79225">
        <ele>120</ele>
        <time>2009-01-20T13:43:47Z</time>
      </trkpt>
      <trkpt lat="44.7451" lon="0.7919">
        <ele>122</ele>
        <time>2009-01-20T13:43:51Z</time>
      </trkpt>
      <trkpt lat="44.74513" lon="0.79155">
        <ele>124</ele>
        <time>2009-01-20T13:43:55Z</time>
      </trkpt>
      <trkpt lat="44.74518" lon="0.79128">
        <ele>125</ele>
        <time>2009-01-20T13:43:59Z</time>
      </trkpt>
      <trkpt lat="44.74523" lon="0.79095">
        <ele>130</ele>
        <time>2009-01-20T13:44:04Z</time>
      </trkpt>
      <trkpt lat="44.74523" lon="0.7906">
        <ele>137</ele>
        <time>2009-01-20T13:44:08Z</time>
      </trkpt>
      <trkpt lat="44.74528" lon="0.79033">
        <ele>144</ele>
        <time>2009-01-20T13:44:11Z</time>
      </trkpt>
      <trkpt lat="44.7454" lon="0.79">
        <ele>150</ele>
        <time>2009-01-20T13:44:14Z</time>
      </trkpt>
      <trkpt lat="44.74553" lon="0.78973">
        <ele>151</ele>
        <time>2009-01-20T13:44:17Z</time>
      </trkpt>
      <trkpt lat="44.74568" lon="0.7895">
        <ele>153</ele>
        <time>2009-01-20T13:44:20Z</time>
      </trkpt>
      <trkpt lat="44.7458" lon="0.78928">
        <ele>154</ele>
        <time>2009-01-20T13:44:23Z</time>
      </trkpt>
      <trkpt lat="44.74595" lon="0.78908">
        <ele>153</ele>
        <time>2009-01-20T13:44:26Z</time>
      </trkpt>
      <trkpt lat="44.7461" lon="0.78888">
        <ele>154</ele>
        <time>2009-01-20T13:44:29Z</time>
      </trkpt>
      <trkpt lat="44.74625" lon="0.78868">
        <ele>156</ele>
        <time>2009-01-20T13:44:32Z</time>
      </trkpt>
      <trkpt lat="44.74638" lon="0.78845">
        <ele>158</ele>
        <time>2009-01-20T13:44:35Z</time>
      </trkpt>
      <trkpt lat="44.7465" lon="0.7882">
        <ele>160</ele>
        <time>2009-01-20T13:44:38Z</time>
      </trkpt>
      <trkpt lat="44.74663" lon="0.78798">
        <ele>163</ele>
        <time>2009-01-20T13:44:41Z</time>
      </trkpt>
      <trkpt lat="44.74673" lon="0.78775">
        <ele>164</ele>
        <time>2009-01-20T13:44:44Z</time>
      </trkpt>
      <trkpt lat="44.74683" lon="0.78748">
        <ele>166</ele>
        <time>2009-01-20T13:44:47Z</time>
      </trkpt>
      <trkpt lat="44.74693" lon="0.78723">
        <ele>166</ele>
        <time>2009-01-20T13:44:50Z</time>
      </trkpt>
      <trkpt lat="44.747" lon="0.78698">
        <ele>166</ele>
        <time>2009-01-20T13:44:53Z</time>
      </trkpt>
      <trkpt lat="44.7471" lon="0.7867">
        <ele>167</ele>
        <time>2009-01-20T13:44:57Z</time>
      </trkpt>
      <trkpt lat="44.7472" lon="0.78645">
        <ele>169</ele>
        <time>2009-01-20T13:45:00Z</time>
      </trkpt>
      <trkpt lat="44.74733" lon="0.78618">
        <ele>170</ele>
        <time>2009-01-20T13:45:03Z</time>
      </trkpt>
      <trkpt lat="44.74745" lon="0.78593">
        <ele>170</ele>
        <time>2009-01-20T13:45:06Z</time>
      </trkpt>
      <trkpt lat="44.74755" lon="0.78565">
        <ele>173</ele>
        <time>2009-01-20T13:45:09Z</time>
      </trkpt>
      <trkpt lat="44.74765" lon="0.78543">
        <ele>172</ele>
        <time>2009-01-20T13:45:13Z</time>
      </trkpt>
      <trkpt lat="44.7478" lon="0.78558">
        <ele>170</ele>
        <time>2009-01-20T13:45:25Z</time>
      </trkpt>
      <trkpt lat="44.7479" lon="0.7858">
        <ele>169</ele>
        <time>2009-01-20T13:45:29Z</time>
      </trkpt>
      <trkpt lat="44.748" lon="0.78603">
        <ele>170</ele>
        <time>2009-01-20T13:45:40Z</time>
      </trkpt>
      <trkpt lat="44.7481" lon="0.78625">
        <ele>170</ele>
        <time>2009-01-20T13:45:44Z</time>
      </trkpt>
      <trkpt lat="44.74823" lon="0.78653">
        <ele>168</ele>
        <time>2009-01-20T13:45:48Z</time>
      </trkpt>
      <trkpt lat="44.74833" lon="0.78675">
        <ele>167</ele>
        <time>2009-01-20T13:45:51Z</time>
      </trkpt>
      <trkpt lat="44.74845" lon="0.78698">
        <ele>166</ele>
        <time>2009-01-20T13:45:54Z</time>
      </trkpt>
      <trkpt lat="44.74858" lon="0.7872">
        <ele>165</ele>
        <time>2009-01-20T13:45:57Z</time>
      </trkpt>
      <trkpt lat="44.7487" lon="0.78743">
        <ele>163</ele>
        <time>2009-01-20T13:46:00Z</time>
      </trkpt>
      <trkpt lat="44.74885" lon="0.78763">
        <ele>163</ele>
        <time>2009-01-20T13:46:03Z</time>
      </trkpt>
      <trkpt lat="44.749" lon="0.78785">
        <ele>162</ele>
        <time>2009-01-20T13:46:06Z</time>
      </trkpt>
      <trkpt lat="44.74913" lon="0.78808">
        <ele>162</ele>
        <time>2009-01-20T13:46:09Z</time>
      </trkpt>
      <trkpt lat="44.74925" lon="0.78833">
        <ele>162</ele>
        <time>2009-01-20T13:46:12Z</time>
      </trkpt>
      <trkpt lat="44.74938" lon="0.78863">
        <ele>161</ele>
        <time>2009-01-20T13:46:16Z</time>
      </trkpt>
      <trkpt lat="44.74948" lon="0.78885">
        <ele>161</ele>
        <time>2009-01-20T13:46:19Z</time>
      </trkpt>
      <trkpt lat="44.7496" lon="0.78908">
        <ele>160</ele>
        <time>2009-01-20T13:46:22Z</time>
      </trkpt>
      <trkpt lat="44.7497" lon="0.7894">
        <ele>161</ele>
        <time>2009-01-20T13:46:26Z</time>
      </trkpt>
      <trkpt lat="44.74978" lon="0.78965">
        <ele>161</ele>
        <time>2009-01-20T13:46:29Z</time>
      </trkpt>
      <trkpt lat="44.74988" lon="0.78988">
        <ele>161</ele>
        <time>2009-01-20T13:46:31Z</time>
      </trkpt>
      <trkpt lat="44.74995" lon="0.79013">
        <ele>161</ele>
        <time>2009-01-20T13:46:35Z</time>
      </trkpt>
      <trkpt lat="44.75008" lon="0.79033">
        <ele>162</ele>
        <time>2009-01-20T13:46:38Z</time>
      </trkpt>
      <trkpt lat="44.7502" lon="0.79055">
        <ele>160</ele>
        <time>2009-01-20T13:46:42Z</time>
      </trkpt>
      <trkpt lat="44.75038" lon="0.79073">
        <ele>154</ele>
        <time>2009-01-20T13:46:46Z</time>
      </trkpt>
      <trkpt lat="44.75055" lon="0.79095">
        <ele>151</ele>
        <time>2009-01-20T13:46:50Z</time>
      </trkpt>
      <trkpt lat="44.75073" lon="0.79115">
        <ele>146</ele>
        <time>2009-01-20T13:46:53Z</time>
      </trkpt>
      <trkpt lat="44.75088" lon="0.79135">
        <ele>141</ele>
        <time>2009-01-20T13:47:05Z</time>
      </trkpt>
      <trkpt lat="44.75105" lon="0.7916">
        <ele>141</ele>
        <time>2009-01-20T13:47:16Z</time>
      </trkpt>
      <trkpt lat="44.75118" lon="0.7918">
        <ele>141</ele>
        <time>2009-01-20T13:47:19Z</time>
      </trkpt>
      <trkpt lat="44.75133" lon="0.79205">
        <ele>140</ele>
        <time>2009-01-20T13:47:22Z</time>
      </trkpt>
      <trkpt lat="44.75155" lon="0.7923">
        <ele>139</ele>
        <time>2009-01-20T13:47:25Z</time>
      </trkpt>
      <trkpt lat="44.7517" lon="0.79245">
        <ele>139</ele>
        <time>2009-01-20T13:47:27Z</time>
      </trkpt>
      <trkpt lat="44.75188" lon="0.7926">
        <ele>139</ele>
        <time>2009-01-20T13:47:29Z</time>
      </trkpt>
      <trkpt lat="44.75213" lon="0.7928">
        <ele>140</ele>
        <time>2009-01-20T13:47:32Z</time>
      </trkpt>
      <trkpt lat="44.7523" lon="0.79293">
        <ele>143</ele>
        <time>2009-01-20T13:47:34Z</time>
      </trkpt>
      <trkpt lat="44.75253" lon="0.79313">
        <ele>144</ele>
        <time>2009-01-20T13:47:37Z</time>
      </trkpt>
      <trkpt lat="44.75273" lon="0.7933">
        <ele>146</ele>
        <time>2009-01-20T13:47:40Z</time>
      </trkpt>
      <trkpt lat="44.75293" lon="0.7935">
        <ele>148</ele>
        <time>2009-01-20T13:47:43Z</time>
      </trkpt>
      <trkpt lat="44.75313" lon="0.79368">
        <ele>147</ele>
        <time>2009-01-20T13:47:46Z</time>
      </trkpt>
      <trkpt lat="44.7533" lon="0.79385">
        <ele>145</ele>
        <time>2009-01-20T13:47:49Z</time>
      </trkpt>
      <trkpt lat="44.7535" lon="0.79405">
        <ele>141</ele>
        <time>2009-01-20T13:47:52Z</time>
      </trkpt>
      <trkpt lat="44.75365" lon="0.7942">
        <ele>138</ele>
        <time>2009-01-20T13:47:54Z</time>
      </trkpt>
      <trkpt lat="44.75383" lon="0.79438">
        <ele>138</ele>
        <time>2009-01-20T13:47:56Z</time>
      </trkpt>
      <trkpt lat="44.75398" lon="0.79455">
        <ele>136</ele>
        <time>2009-01-20T13:47:58Z</time>
      </trkpt>
      <trkpt lat="44.75418" lon="0.79488">
        <ele>134</ele>
        <time>2009-01-20T13:48:01Z</time>
      </trkpt>
      <trkpt lat="44.7543" lon="0.79508">
        <ele>131</ele>
        <time>2009-01-20T13:48:03Z</time>
      </trkpt>
      <trkpt lat="44.7544" lon="0.7953">
        <ele>127</ele>
        <time>2009-01-20T13:48:06Z</time>
      </trkpt>
      <trkpt lat="44.75946" lon="0.78185">
        <ele>154</ele>
        <time>2009-01-20T14:12:13Z</time>
      </trkpt>
    </trkseg>
  </trk>
</gpx>